EST,Max TemperatureF,Mean TemperatureF,Min TemperatureF,Max Dew PointF,MeanDew PointF,Min DewpointF,Max Humidity, Mean Humidity, Min Humidity, Max Sea Level PressureIn, Mean Sea Level PressureIn, Min Sea Level PressureIn, Max VisibilityMiles, Mean VisibilityMiles, Min VisibilityMiles, Max Wind SpeedMPH, Mean Wind SpeedMPH, Max Gust SpeedMPH,PrecipitationIn, CloudCover, Events, WindDirDegrees
2013-1-1,32,22,11,22,11,-2,75,55,35,29.88,29.73,29.62,10,10,10,24,11,29,0.00,2,,269
2013-1-2,24,14,3,6,-1,-9,69,54,39,30.06,29.93,29.86,10,10,10,26,9,33,0.00,1,,283
2013-1-3,23,12,1,1,-4,-10,63,50,36,30.10,30.04,29.95,10,10,10,12,6,,0.00,0,,285
2013-1-4,34,22,9,21,14,1,83,70,56,29.93,29.81,29.74,10,10,10,15,7,22,0.00,3,,217
2013-1-5,36,26,16,23,15,9,67,51,35,30.26,30.04,29.75,10,10,10,29,10,36,0.00,2,,278
2013-1-6,37,27,16,24,19,11,84,72,59,30.21,30.02,29.92,10,9,4,17,4,21,T,5,Snow,279
2013-1-7,31,23,15,25,18,11,84,71,58,30.40,30.21,29.94,10,10,7,17,5,22,T,4,,22
2013-1-8,43,28,13,23,20,12,84,62,39,30.36,30.27,30.20,10,10,9,17,8,23,0.00,0,,240
2013-1-9,40,28,16,32,24,16,92,78,64,30.40,30.20,29.91,10,9,6,15,4,20,T,2,Rain,243
2013-1-10,44,36,27,32,24,20,76,58,40,30.53,30.26,29.92,10,10,10,35,14,45,T,1,Rain,304
2013-1-11,36,28,19,31,23,16,89,74,59,30.53,30.40,30.25,10,9,3,14,3,16,0.02,4,Rain,4
2013-1-12,42,38,33,40,36,31,100,93,86,30.25,30.18,30.12,10,3,0,8,3,9,0.03,8,Fog-Rain,235
2013-1-13,45,41,36,45,40,36,100,96,92,30.16,30.07,29.95,3,1,0,9,4,13,0.00,8,Fog,211
2013-1-14,59,47,35,47,39,24,100,73,46,30.21,29.99,29.86,10,6,1,14,7,20,0.00,5,,252
2013-1-15,38,34,29,26,23,20,78,65,52,30.32,30.27,30.23,10,10,10,8,2,13,0.00,3,,296
2013-1-16,33,31,29,29,26,21,92,76,59,30.26,30.04,29.78,10,4,0,12,7,14,0.60,7,Fog-Snow,348
2013-1-17,40,29,18,29,19,-2,92,62,32,30.12,29.92,29.77,10,10,10,24,9,30,T,1,,282
2013-1-18,20,15,9,0,-6,-14,51,40,28,30.41,30.29,30.12,10,10,10,20,9,27,0.00,1,,296
2013-1-19,42,29,16,26,16,2,54,49,44,30.35,30.08,29.86,10,10,10,17,8,24,0.00,6,,216
2013-1-20,49,38,26,32,22,5,76,55,33,29.85,29.65,29.44,10,10,10,31,15,45,0.00,2,,233
2013-1-21,27,22,17,12,3,-2,68,51,33,30.05,29.96,29.84,10,10,10,25,11,33,0.00,3,,277
2013-1-22,22,15,8,12,3,-6,73,60,46,30.04,29.86,29.76,10,10,7,20,9,25,T,5,,347
2013-1-23,8,4,0,-6,-14,-17,62,47,32,30.11,30.07,30.04,10,10,10,30,11,35,0.00,0,,282
2013-1-24,18,7,-4,-8,-12,-16,61,46,30,30.13,30.04,29.96,10,10,10,21,10,26,0.00,1,,283
2013-1-25,23,12,1,-1,-4,-10,69,52,34,30.22,30.15,30.07,10,10,10,15,5,19,0.00,2,,292
2013-1-26,23,17,10,-1,-4,-7,58,43,28,30.15,30.06,30.00,10,10,10,22,11,28,0.00,4,,333
2013-1-27,28,19,9,3,-2,-8,63,47,31,30.44,30.31,30.16,10,10,10,22,9,28,0.00,0,,318
2013-1-28,27,18,9,20,11,-4,92,59,26,30.43,30.24,30.07,10,6,1,8,3,10,0.14,6,Snow,306
2013-1-29,33,28,22,30,23,18,88,77,66,30.21,30.15,30.08,10,9,3,10,3,12,0.04,8,Rain-Snow,356
2013-1-30,52,42,32,51,41,31,100,95,89,30.14,29.82,29.44,6,2,0,15,7,24,0.29,8,Fog-Rain,201
2013-1-31,54,42,29,52,37,9,100,68,35,29.47,29.19,28.86,10,7,1,36,21,50,0.24,6,Rain,219